createdAt,value
2023-01-07T00:00:02.003Z,11.52
2023-01-07T00:01:19.491Z,10.13
2023-01-07T00:02:16.164Z,9.85
2023-01-07T00:03:12.754Z,11.07
2023-01-07T00:04:12.751Z,10.65
2023-01-07T00:05:09.863Z,9.52
2023-01-07T00:06:10.076Z,11.32
2023-01-07T00:07:06.818Z,7.13
2023-01-07T00:08:03.544Z,9.05
2023-01-07T00:09:01.433Z,9.40
2023-01-07T00:09:58.113Z,12.75
2023-01-07T00:10:54.795Z,11.73
2023-01-07T00:11:51.412Z,8.00
2023-01-07T00:12:48.012Z,6.57
2023-01-07T00:13:44.937Z,12.35
2023-01-07T00:14:41.585Z,12.15
2023-01-07T00:15:38.183Z,13.05
2023-01-07T00:16:36.124Z,10.10
2023-01-07T00:17:32.710Z,11.55
2023-01-07T00:18:29.347Z,9.02
2023-01-07T00:19:25.964Z,16.45
2023-01-07T00:20:22.538Z,8.82
2023-01-07T00:21:21.288Z,10.88
2023-01-07T00:22:17.960Z,10.02
2023-01-07T00:23:14.573Z,11.55
2023-01-07T00:24:12.138Z,11.77
2023-01-07T00:25:08.984Z,10.90
2023-01-07T00:26:31.624Z,9.68
2023-01-07T00:27:28.184Z,17.63
2023-01-07T00:28:24.877Z,13.07
2023-01-07T00:29:21.526Z,14.02
2023-01-07T00:30:18.196Z,9.00
2023-01-07T00:31:14.930Z,10.75
2023-01-07T00:32:11.537Z,16.00
2023-01-07T00:33:11.186Z,10.63
2023-01-07T00:34:09.442Z,7.38
2023-01-07T00:35:21.539Z,8.45
2023-01-07T00:36:19.848Z,8.43
2023-01-07T00:37:34.843Z,10.23
2023-01-07T00:38:31.846Z,6.13
2023-01-07T00:39:28.455Z,6.43
2023-01-07T00:40:25.349Z,10.43
2023-01-07T00:41:22.253Z,8.32
2023-01-07T00:42:37.200Z,16.77
2023-01-07T00:43:33.937Z,9.15
2023-01-07T00:44:31.130Z,11.07
2023-01-07T00:45:34.167Z,10.70
2023-01-07T00:46:30.906Z,7.72
2023-01-07T00:47:27.611Z,9.65
2023-01-07T00:48:24.873Z,8.73
2023-01-07T00:49:24.473Z,9.75
2023-01-07T00:50:22.436Z,4.50
2023-01-07T00:51:19.755Z,11.93
2023-01-07T00:52:16.330Z,9.93
2023-01-07T00:53:13.264Z,9.40
2023-01-07T00:54:09.821Z,7.75
2023-01-07T00:55:07.130Z,7.60
2023-01-07T00:56:04.117Z,6.80
2023-01-07T00:57:00.882Z,6.75
2023-01-07T00:57:58.109Z,5.70
2023-01-07T00:58:54.674Z,7.53
2023-01-07T00:59:51.424Z,9.15
2023-01-07T01:00:48.407Z,8.35
2023-01-07T01:01:45.229Z,7.53
2023-01-07T01:02:42.164Z,10.95
2023-01-07T01:03:39.567Z,8.68
2023-01-07T01:04:36.273Z,8.20
2023-01-07T01:05:32.855Z,9.32
2023-01-07T01:06:29.418Z,10.50
2023-01-07T01:07:25.992Z,10.32
2023-01-07T01:08:23.777Z,10.27
2023-01-07T01:09:21.448Z,11.68
2023-01-07T01:10:20.382Z,10.35
2023-01-07T01:11:17.415Z,10.40
2023-01-07T01:12:13.998Z,11.27
2023-01-07T01:13:14.937Z,8.98
2023-01-07T01:14:12.386Z,9.57
2023-01-07T01:15:14.405Z,10.35
2023-01-07T01:16:14.772Z,10.98
2023-01-07T01:17:11.471Z,12.77
2023-01-07T01:18:08.048Z,14.60
2023-01-07T01:19:04.691Z,10.10
2023-01-07T01:20:01.571Z,7.43
2023-01-07T01:21:03.739Z,9.80
2023-01-07T01:22:00.343Z,8.55
2023-01-07T01:22:57.031Z,12.90
2023-01-07T01:23:53.850Z,8.30
2023-01-07T01:24:51.371Z,14.65
2023-01-07T01:25:48.082Z,8.27
2023-01-07T01:26:44.836Z,7.45
2023-01-07T01:27:41.736Z,8.82
2023-01-07T01:28:39.130Z,9.65
2023-01-07T01:29:35.825Z,10.82
2023-01-07T01:30:32.446Z,7.97
2023-01-07T01:31:29.206Z,10.70
2023-01-07T01:32:26.011Z,9.77
2023-01-07T01:33:22.591Z,8.60
2023-01-07T01:34:19.345Z,9.98
2023-01-07T01:35:16.032Z,9.52
2023-01-07T01:36:13.397Z,10.32
2023-01-07T01:37:10.087Z,6.63
2023-01-07T01:38:06.721Z,5.95
2023-01-07T01:39:04.951Z,8.48
2023-01-07T01:40:04.162Z,8.98
2023-01-07T01:41:00.879Z,8.93
2023-01-07T01:41:57.481Z,8.57
2023-01-07T01:42:54.139Z,9.30
2023-01-07T01:43:51.156Z,13.02
2023-01-07T01:44:53.727Z,11.90
2023-01-07T01:45:50.420Z,11.13
2023-01-07T01:46:47.038Z,11.15
2023-01-07T01:47:56.718Z,7.80
2023-01-07T01:48:59.299Z,11.93
2023-01-07T01:50:01.948Z,8.68
2023-01-07T01:50:58.729Z,9.90
2023-01-07T01:52:09.983Z,7.53
2023-01-07T01:53:15.398Z,10.00
2023-01-07T01:54:16.731Z,11.70
2023-01-07T01:55:18.231Z,10.35
2023-01-07T01:56:20.034Z,8.98
2023-01-07T01:57:18.976Z,13.68
2023-01-07T01:58:20.416Z,6.32
2023-01-07T01:59:25.538Z,7.35
2023-01-07T02:00:22.386Z,10.63
2023-01-07T02:01:19.188Z,9.13
2023-01-07T02:02:20.392Z,6.82
2023-01-07T02:03:19.864Z,9.25
2023-01-07T02:04:21.201Z,5.78
2023-01-07T02:05:18.438Z,11.00
2023-01-07T02:06:22.971Z,9.80
2023-01-07T02:07:19.750Z,8.35
2023-01-07T02:08:22.181Z,8.30
2023-01-07T02:10:21.760Z,10.20
2023-01-07T02:11:41.121Z,12.93
2023-01-07T02:12:40.576Z,15.20
2023-01-07T02:13:55.711Z,12.48
2023-01-07T02:15:07.598Z,8.90
2023-01-07T02:16:10.450Z,7.85
2023-01-07T02:17:18.912Z,8.27
2023-01-07T02:18:39.888Z,6.45
2023-01-07T02:19:39.149Z,9.20
2023-01-07T02:20:35.779Z,8.77
2023-01-07T02:22:01.219Z,9.88
2023-01-07T02:23:26.976Z,9.65
2023-01-07T02:24:45.267Z,8.80
2023-01-07T02:26:12.700Z,5.88
2023-01-07T02:27:42.296Z,7.35
2023-01-07T02:28:59.489Z,12.52
2023-01-07T02:30:07.932Z,9.93
2023-01-07T02:31:25.149Z,10.13
2023-01-07T02:32:30.792Z,10.77
2023-01-07T02:33:46.279Z,9.25
2023-01-07T02:35:07.280Z,9.43
2023-01-07T02:36:12.519Z,11.82
2023-01-07T02:37:39.170Z,7.70
2023-01-07T02:38:44.793Z,6.25
2023-01-07T02:40:09.016Z,10.38
2023-01-07T02:41:42.719Z,9.65
2023-01-07T02:43:02.639Z,9.48
2023-01-07T02:44:07.257Z,7.78
2023-01-07T02:45:27.252Z,9.55
2023-01-07T02:46:45.725Z,10.52
2023-01-07T02:47:49.758Z,8.80
2023-01-07T02:48:47.061Z,9.73
2023-01-07T02:49:47.516Z,11.50
2023-01-07T02:50:44.235Z,8.45
2023-01-07T02:51:42.916Z,5.38
2023-01-07T02:52:39.670Z,6.25
2023-01-07T02:53:36.726Z,7.97
2023-01-07T02:54:33.389Z,9.45
2023-01-07T02:56:07.342Z,8.38
2023-01-07T02:57:45.516Z,15.93
2023-01-07T02:59:26.333Z,7.30
2023-01-07T03:00:31.226Z,9.07
2023-01-07T03:01:27.909Z,10.75
2023-01-07T03:02:45.584Z,9.15
2023-01-07T03:03:57.828Z,8.77
2023-01-07T03:05:18.903Z,8.50
2023-01-07T03:06:18.293Z,6.38
2023-01-07T03:07:33.078Z,6.15
2023-01-07T03:09:14.930Z,7.57
2023-01-07T03:10:23.825Z,11.85
2023-01-07T03:11:23.766Z,8.38
2023-01-07T03:12:30.231Z,8.13
2023-01-07T03:13:58.938Z,8.15
2023-01-07T03:15:17.403Z,10.25
2023-01-07T03:16:27.787Z,9.85
2023-01-07T03:17:34.029Z,6.65
2023-01-07T03:18:35.831Z,8.88
2023-01-07T03:19:36.440Z,6.90
2023-01-07T03:20:37.772Z,11.48
2023-01-07T03:21:36.118Z,7.13
2023-01-07T03:22:36.260Z,8.13
2023-01-07T03:23:35.892Z,6.18
2023-01-07T03:24:33.693Z,8.40
2023-01-07T03:25:32.241Z,8.38
2023-01-07T03:26:33.480Z,7.05
2023-01-07T03:27:33.524Z,6.88
2023-01-07T03:28:33.160Z,7.63
2023-01-07T03:29:32.291Z,6.47
2023-01-07T03:30:30.179Z,3.90
2023-01-07T03:31:28.485Z,6.63
2023-01-07T03:32:30.306Z,4.95
2023-01-07T03:33:35.530Z,10.40
2023-01-07T03:34:34.353Z,5.50
2023-01-07T03:35:32.962Z,10.68
2023-01-07T03:36:36.139Z,12.77
2023-01-07T03:37:34.418Z,11.07
2023-01-07T03:38:31.307Z,6.97
2023-01-07T03:39:30.763Z,6.57
2023-01-07T03:40:27.661Z,8.75
2023-01-07T03:41:43.222Z,6.32
2023-01-07T03:42:41.679Z,9.20
2023-01-07T03:43:38.292Z,7.50
2023-01-07T03:44:35.244Z,5.32
2023-01-07T03:45:32.169Z,10.85
2023-01-07T03:46:29.199Z,8.88
2023-01-07T03:47:28.511Z,7.63
2023-01-07T03:48:25.220Z,8.27
2023-01-07T03:49:21.803Z,6.78
2023-01-07T03:50:19.507Z,9.73
2023-01-07T03:51:16.201Z,12.40
2023-01-07T03:52:12.897Z,8.38
2023-01-07T03:53:09.620Z,8.02
2023-01-07T03:54:06.282Z,5.93
2023-01-07T03:55:05.117Z,11.57
2023-01-07T03:56:01.753Z,8.65
2023-01-07T03:56:58.463Z,11.18
2023-01-07T03:57:56.045Z,10.02
2023-01-07T03:58:52.739Z,7.28
2023-01-07T03:59:49.363Z,7.97
2023-01-07T04:00:46.004Z,13.68
2023-01-07T04:01:42.750Z,8.75
2023-01-07T04:02:39.525Z,9.30
2023-01-07T04:03:36.158Z,7.82
2023-01-07T04:04:33.069Z,7.75
2023-01-07T04:05:29.776Z,13.30
2023-01-07T04:06:26.459Z,6.65
2023-01-07T04:07:23.157Z,10.35
2023-01-07T04:08:19.827Z,11.45
2023-01-07T04:09:18.896Z,5.60
2023-01-07T04:10:15.599Z,8.80
2023-01-07T04:11:12.223Z,9.82
2023-01-07T04:12:09.308Z,8.50
2023-01-07T04:13:05.930Z,7.72
2023-01-07T04:14:02.854Z,7.88
2023-01-07T04:15:00.810Z,8.20
2023-01-07T04:15:57.388Z,8.88
2023-01-07T04:16:54.128Z,12.02
2023-01-07T04:17:50.781Z,11.40
2023-01-07T04:18:47.488Z,8.98
2023-01-07T04:19:44.240Z,6.75
2023-01-07T04:20:41.053Z,9.65
2023-01-07T04:21:37.860Z,6.38
2023-01-07T04:22:34.527Z,7.47
2023-01-07T04:23:31.216Z,6.80
2023-01-07T04:24:27.853Z,8.18
2023-01-07T04:25:24.585Z,6.20
2023-01-07T04:26:21.201Z,9.85
2023-01-07T04:27:17.939Z,6.90
2023-01-07T04:28:14.539Z,9.70
2023-01-07T04:29:11.653Z,7.38
2023-01-07T04:30:08.798Z,8.38
2023-01-07T04:31:05.580Z,5.75
2023-01-07T04:32:02.683Z,6.32
2023-01-07T04:32:59.838Z,13.10
2023-01-07T04:33:56.497Z,8.00
2023-01-07T04:34:53.155Z,8.50
2023-01-07T04:35:49.776Z,6.97
2023-01-07T04:36:46.520Z,6.25
2023-01-07T04:37:43.109Z,6.57
2023-01-07T04:38:39.813Z,7.70
2023-01-07T04:39:36.624Z,4.72
2023-01-07T04:40:33.263Z,6.90
2023-01-07T04:41:29.967Z,4.55
2023-01-07T04:42:26.687Z,12.88
2023-01-07T04:43:23.499Z,8.73
2023-01-07T04:44:20.221Z,6.50
2023-01-07T04:45:16.850Z,5.15
2023-01-07T04:46:13.587Z,6.28
2023-01-07T04:47:10.250Z,27.88
2023-01-07T04:48:07.131Z,50.17
2023-01-07T04:49:03.899Z,31.75
2023-01-07T04:50:00.705Z,89.85
2023-01-07T04:50:57.403Z,110.60
2023-01-07T04:51:54.116Z,60.65
2023-01-07T04:52:50.867Z,46.83
2023-01-07T04:53:47.779Z,35.67
2023-01-07T04:54:44.403Z,14.23
2023-01-07T04:55:41.624Z,15.95
2023-01-07T04:56:38.323Z,20.88
2023-01-07T04:57:34.879Z,19.00
2023-01-07T04:58:31.651Z,11.45
2023-01-07T04:59:28.354Z,9.27
2023-01-07T05:00:24.945Z,17.52
2023-01-07T05:01:21.765Z,31.95
2023-01-07T05:02:18.495Z,18.58
2023-01-07T05:03:15.347Z,15.07
2023-01-07T05:04:12.076Z,14.45
2023-01-07T05:05:09.438Z,14.05
2023-01-07T05:06:06.367Z,11.48
2023-01-07T05:07:03.279Z,22.38
2023-01-07T05:07:59.887Z,133.10
2023-01-07T05:08:56.526Z,88.15
2023-01-07T05:09:53.324Z,91.13
2023-01-07T05:10:50.472Z,58.15
2023-01-07T05:11:47.098Z,97.80
2023-01-07T05:12:43.691Z,100.82
2023-01-07T05:13:40.235Z,89.30
2023-01-07T05:14:36.945Z,104.95
2023-01-07T05:15:33.960Z,116.40
2023-01-07T05:16:30.676Z,111.35
2023-01-07T05:17:27.352Z,59.75
2023-01-07T05:18:23.949Z,35.90
2023-01-07T05:19:21.886Z,26.73
2023-01-07T05:20:18.654Z,26.70
2023-01-07T05:21:15.304Z,23.45
2023-01-07T05:22:12.039Z,23.13
2023-01-07T05:23:08.864Z,13.77
2023-01-07T05:24:05.609Z,15.40
2023-01-07T05:25:02.260Z,10.60
2023-01-07T05:25:58.903Z,10.63
2023-01-07T05:26:55.718Z,9.25
2023-01-07T05:27:52.412Z,9.23
2023-01-07T05:28:48.999Z,9.75
2023-01-07T05:29:45.565Z,11.93
2023-01-07T05:30:42.286Z,9.95
2023-01-07T05:31:39.021Z,9.02
2023-01-07T05:32:35.830Z,12.85
2023-01-07T05:33:32.543Z,5.55
2023-01-07T05:34:29.470Z,11.90
2023-01-07T05:35:26.204Z,8.55
2023-01-07T05:36:22.866Z,5.75
2023-01-07T05:37:19.495Z,8.75
2023-01-07T05:38:16.247Z,7.45
2023-01-07T05:39:12.851Z,11.10
2023-01-07T05:40:10.451Z,6.93
2023-01-07T05:41:08.539Z,6.32
2023-01-07T05:42:05.207Z,7.45
2023-01-07T05:43:01.806Z,6.35
2023-01-07T05:43:58.443Z,5.13
2023-01-07T05:44:55.155Z,7.55
2023-01-07T05:45:51.850Z,9.18
2023-01-07T05:46:48.522Z,7.90
2023-01-07T05:47:45.096Z,9.13
2023-01-07T05:48:41.988Z,13.45
2023-01-07T05:49:38.731Z,10.98
2023-01-07T05:50:35.462Z,17.80
2023-01-07T05:51:32.219Z,10.70
2023-01-07T05:52:28.821Z,8.77
2023-01-07T05:53:25.450Z,10.98
2023-01-07T05:54:22.017Z,11.52
2023-01-07T05:55:18.817Z,10.80
2023-01-07T05:56:15.409Z,7.90
2023-01-07T05:57:12.031Z,9.38
2023-01-07T05:58:09.176Z,10.95
2023-01-07T05:59:06.029Z,8.50
2023-01-07T06:00:04.167Z,8.38
2023-01-07T06:01:00.944Z,14.18
2023-01-07T06:01:57.723Z,19.10
2023-01-07T06:02:54.428Z,16.10
2023-01-07T06:03:51.075Z,24.00
2023-01-07T06:04:47.789Z,20.55
2023-01-07T06:05:44.555Z,19.55
2023-01-07T06:06:41.383Z,26.15
2023-01-07T06:07:38.156Z,26.85
2023-01-07T06:08:39.251Z,27.67
2023-01-07T06:09:35.830Z,22.42
2023-01-07T06:10:32.702Z,22.10
2023-01-07T06:11:29.352Z,34.75
2023-01-07T06:12:26.039Z,44.97
2023-01-07T06:13:22.683Z,57.50
2023-01-07T06:14:19.426Z,75.35
2023-01-07T06:15:16.122Z,87.43
2023-01-07T06:16:14.277Z,100.90
2023-01-07T06:17:11.018Z,63.85
2023-01-07T06:18:07.714Z,35.25
2023-01-07T06:19:04.340Z,48.42
2023-01-07T06:20:01.020Z,74.20
2023-01-07T06:20:58.042Z,124.95
2023-01-07T06:21:54.634Z,109.65
2023-01-07T06:22:51.355Z,122.28
2023-01-07T06:23:47.929Z,23.77
2023-01-07T06:24:44.515Z,17.58
2023-01-07T06:25:41.115Z,23.10
2023-01-07T06:26:37.737Z,22.30
2023-01-07T06:27:34.797Z,29.55
2023-01-07T06:28:31.534Z,20.00
2023-01-07T06:29:28.195Z,21.63
2023-01-07T06:30:24.933Z,26.17
2023-01-07T06:31:21.640Z,28.60
2023-01-07T06:32:18.355Z,29.98
2023-01-07T06:33:16.367Z,28.60
2023-01-07T06:34:13.122Z,37.47
2023-01-07T06:35:11.493Z,28.05
2023-01-07T06:36:08.402Z,29.92
2023-01-07T06:37:05.059Z,30.80
2023-01-07T06:38:01.743Z,26.58
2023-01-07T06:38:58.370Z,26.90
2023-01-07T06:39:55.084Z,35.28
2023-01-07T06:40:51.696Z,44.65
2023-01-07T06:41:48.326Z,35.10
2023-01-07T06:42:45.000Z,37.85
2023-01-07T06:43:41.601Z,44.40
2023-01-07T06:44:38.751Z,56.22
2023-01-07T06:45:35.483Z,120.78
2023-01-07T06:46:32.210Z,180.32
2023-01-07T06:47:28.927Z,131.38
2023-01-07T06:48:25.764Z,75.20
2023-01-07T06:49:22.467Z,51.92
2023-01-07T06:50:19.484Z,70.47
2023-01-07T06:51:16.153Z,75.05
2023-01-07T06:52:12.838Z,80.93
2023-01-07T06:53:09.569Z,77.13
2023-01-07T06:54:06.315Z,61.00
2023-01-07T06:55:05.939Z,45.50
2023-01-07T06:56:03.925Z,43.25
2023-01-07T06:57:00.572Z,36.78
2023-01-07T06:57:57.142Z,38.65
2023-01-07T06:58:53.774Z,31.77
2023-01-07T06:59:50.433Z,22.80
2023-01-07T07:00:47.091Z,27.45
2023-01-07T07:01:46.393Z,19.48
2023-01-07T07:02:43.381Z,27.70
2023-01-07T07:03:40.132Z,35.10
2023-01-07T07:04:36.843Z,41.33
2023-01-07T07:05:34.853Z,35.63
2023-01-07T07:06:31.505Z,23.60
2023-01-07T07:07:28.208Z,17.60
2023-01-07T07:08:24.883Z,13.48
2023-01-07T07:09:21.499Z,12.27
2023-01-07T07:10:18.235Z,14.57
2023-01-07T07:11:15.034Z,12.48
2023-01-07T07:12:12.424Z,19.00
2023-01-07T07:13:09.111Z,23.15
2023-01-07T07:14:05.743Z,34.63
2023-01-07T07:15:02.398Z,39.42
2023-01-07T07:15:59.024Z,31.98
2023-01-07T07:16:55.676Z,29.73
2023-01-07T07:17:52.453Z,62.88
2023-01-07T07:18:49.127Z,93.78
2023-01-07T07:19:45.796Z,62.80
2023-01-07T07:20:42.360Z,41.67
2023-01-07T07:21:38.993Z,27.83
2023-01-07T07:22:35.635Z,20.98
2023-01-07T07:23:32.291Z,33.38
2023-01-07T07:24:28.940Z,43.90
2023-01-07T07:25:25.598Z,60.70
2023-01-07T07:26:22.198Z,55.35
2023-01-07T07:27:18.837Z,37.58
2023-01-07T07:28:15.453Z,27.95
2023-01-07T07:29:12.237Z,20.52
2023-01-07T07:30:09.264Z,17.55
2023-01-07T07:31:06.079Z,13.48
2023-01-07T07:32:03.269Z,10.23
2023-01-07T07:33:04.450Z,8.52
2023-01-07T07:34:01.135Z,9.35
2023-01-07T07:34:57.744Z,10.10
2023-01-07T07:35:55.268Z,8.75
2023-01-07T07:36:52.159Z,8.90
2023-01-07T07:37:48.760Z,8.85
2023-01-07T07:38:45.348Z,8.40
2023-01-07T07:39:41.992Z,10.00
2023-01-07T07:40:38.661Z,9.40
2023-01-07T07:41:35.324Z,12.93
2023-01-07T07:42:32.533Z,16.65
2023-01-07T07:43:49.223Z,10.32
2023-01-07T07:44:45.885Z,5.97
2023-01-07T07:45:43.182Z,12.25
2023-01-07T07:46:41.365Z,10.43
2023-01-07T07:47:38.805Z,7.25
2023-01-07T07:48:35.467Z,11.82
2023-01-07T07:49:32.558Z,30.20
2023-01-07T07:50:29.199Z,30.50
2023-01-07T07:51:25.924Z,25.70
2023-01-07T07:52:22.677Z,21.20
2023-01-07T07:53:20.438Z,72.47
2023-01-07T07:54:17.022Z,71.20
2023-01-07T07:55:20.150Z,70.90
2023-01-07T07:56:22.590Z,51.90
2023-01-07T07:57:19.316Z,71.20
2023-01-07T07:58:16.036Z,32.25
2023-01-07T07:59:12.699Z,28.52
2023-01-07T08:00:09.969Z,23.73
2023-01-07T08:01:06.657Z,20.10
2023-01-07T08:02:03.378Z,24.60
2023-01-07T08:03:00.315Z,38.33
2023-01-07T08:03:56.947Z,49.85
2023-01-07T08:04:53.683Z,71.72
2023-01-07T08:05:50.266Z,31.58
2023-01-07T08:06:47.058Z,35.67
2023-01-07T08:07:43.715Z,35.45
2023-01-07T08:08:40.420Z,22.40
2023-01-07T08:09:37.153Z,16.65
2023-01-07T08:10:33.795Z,34.83
2023-01-07T08:11:30.428Z,18.65
2023-01-07T08:12:27.037Z,15.48
2023-01-07T08:13:24.001Z,26.42
2023-01-07T08:14:20.731Z,14.02
2023-01-07T08:15:17.665Z,91.22
2023-01-07T08:16:14.353Z,156.02
2023-01-07T08:17:11.048Z,68.28
2023-01-07T08:18:10.084Z,29.88
2023-01-07T08:19:06.899Z,64.03
2023-01-07T08:20:04.733Z,41.10
2023-01-07T08:21:01.622Z,116.10
2023-01-07T08:21:58.309Z,109.20
2023-01-07T08:22:55.114Z,163.55
2023-01-07T08:23:51.706Z,194.57
2023-01-07T08:24:48.287Z,163.02
2023-01-07T08:25:44.918Z,74.68
2023-01-07T08:26:41.734Z,38.88
2023-01-07T08:27:38.414Z,34.72
2023-01-07T08:28:35.297Z,22.15
2023-01-07T08:29:31.938Z,25.27
2023-01-07T08:30:29.628Z,20.60
2023-01-07T08:31:26.308Z,28.40
2023-01-07T08:32:23.119Z,18.60
2023-01-07T08:33:19.859Z,46.70
2023-01-07T08:34:16.743Z,63.17
2023-01-07T08:35:13.705Z,88.72
2023-01-07T08:36:22.026Z,168.77
2023-01-07T08:37:19.893Z,157.27
2023-01-07T08:38:16.637Z,101.63
2023-01-07T08:39:13.336Z,105.45
2023-01-07T08:40:11.119Z,170.77
2023-01-07T08:41:07.745Z,226.68
2023-01-07T08:42:04.554Z,171.07
2023-01-07T08:43:02.697Z,95.45
2023-01-07T08:43:59.343Z,87.72
2023-01-07T08:44:56.403Z,147.57
2023-01-07T08:45:53.477Z,166.23
2023-01-07T08:46:50.140Z,108.18
2023-01-07T08:47:50.255Z,122.32
2023-01-07T08:48:46.856Z,257.67
2023-01-07T08:49:43.503Z,275.17
2023-01-07T08:50:40.254Z,235.45
2023-01-07T08:51:37.365Z,186.85
2023-01-07T08:52:34.030Z,91.30
2023-01-07T08:53:30.637Z,122.75
2023-01-07T08:54:27.956Z,167.65
2023-01-07T08:55:25.220Z,105.03
2023-01-07T08:56:22.806Z,99.18
2023-01-07T08:57:19.651Z,45.85
2023-01-07T08:58:16.302Z,47.78
2023-01-07T08:59:13.128Z,35.88
2023-01-07T09:00:10.552Z,28.38
2023-01-07T09:01:08.278Z,21.35
2023-01-07T09:02:05.124Z,39.00
2023-01-07T09:03:02.900Z,36.92
2023-01-07T09:03:59.491Z,40.25
2023-01-07T09:04:56.153Z,59.38
2023-01-07T09:05:52.809Z,224.75
2023-01-07T09:06:49.489Z,265.75
2023-01-07T09:07:46.175Z,165.32
2023-01-07T09:08:42.846Z,120.47
2023-01-07T09:09:39.727Z,108.53
2023-01-07T09:10:36.487Z,86.38
2023-01-07T09:11:33.192Z,79.15
2023-01-07T09:12:30.155Z,59.53
2023-01-07T09:13:26.872Z,47.65
2023-01-07T09:14:23.605Z,55.28
2023-01-07T09:15:20.298Z,101.10
2023-01-07T09:16:16.857Z,116.05
2023-01-07T09:17:13.652Z,160.88
2023-01-07T09:18:10.708Z,106.47
2023-01-07T09:19:07.658Z,134.95
2023-01-07T09:20:05.858Z,109.43
2023-01-07T09:21:02.636Z,127.45
2023-01-07T09:21:59.353Z,95.07
2023-01-07T09:22:55.948Z,59.10
2023-01-07T09:23:52.670Z,152.50
2023-01-07T09:24:49.393Z,65.28
2023-01-07T09:25:46.139Z,53.08
2023-01-07T09:26:43.759Z,62.92
2023-01-07T09:27:41.040Z,45.15
2023-01-07T09:28:37.791Z,31.48
2023-01-07T09:29:34.447Z,37.58
2023-01-07T09:30:31.118Z,85.97
2023-01-07T09:31:27.892Z,87.30
2023-01-07T09:32:26.483Z,46.25
2023-01-07T09:33:23.205Z,44.58
2023-01-07T09:34:19.927Z,55.85
2023-01-07T09:35:16.793Z,56.33
2023-01-07T09:36:13.629Z,61.20
2023-01-07T09:37:10.409Z,87.05
2023-01-07T09:38:07.077Z,53.85
2023-01-07T09:39:03.830Z,63.95
2023-01-07T09:40:03.679Z,59.38
2023-01-07T09:41:00.304Z,71.25
2023-01-07T09:42:37.862Z,85.47
2023-01-07T09:43:59.502Z,28.73
2023-01-07T09:46:16.493Z,29.98
2023-01-07T09:47:17.450Z,20.45
2023-01-07T09:48:24.913Z,28.85
2023-01-07T09:49:25.912Z,56.42
2023-01-07T09:50:25.539Z,44.22
2023-01-07T09:51:27.482Z,78.05
2023-01-07T09:52:36.935Z,38.03
2023-01-07T09:53:41.178Z,45.70
2023-01-07T09:54:39.716Z,30.38
2023-01-07T09:56:11.816Z,36.58
2023-01-07T09:56:57.015Z,22.88
2023-01-07T09:57:53.721Z,35.00
2023-01-07T09:58:51.441Z,59.60
2023-01-07T09:59:48.114Z,38.03
2023-01-07T10:01:12.657Z,29.00
2023-01-07T10:02:34.186Z,29.13
2023-01-07T10:03:43.235Z,22.10
2023-01-07T10:04:42.588Z,23.77
2023-01-07T10:05:48.116Z,23.33
2023-01-07T10:07:08.837Z,41.63
2023-01-07T10:08:29.104Z,82.55
2023-01-07T10:09:47.462Z,71.35
2023-01-07T10:10:50.989Z,60.67
2023-01-07T10:12:06.169Z,38.33
2023-01-07T10:13:42.777Z,28.75
2023-01-07T10:14:46.040Z,31.13
2023-01-07T10:15:57.923Z,20.30
2023-01-07T10:17:05.008Z,24.58
2023-01-07T10:18:12.501Z,36.40
2023-01-07T10:19:09.202Z,57.55
2023-01-07T10:20:21.267Z,31.98
2023-01-07T10:21:43.946Z,23.58
2023-01-07T10:22:51.197Z,38.30
2023-01-07T10:23:59.275Z,30.58
2023-01-07T10:25:02.387Z,21.90
2023-01-07T10:26:01.564Z,24.77
2023-01-07T10:27:03.538Z,22.33
2023-01-07T10:28:06.642Z,14.77
2023-01-07T10:29:26.621Z,17.25
2023-01-07T10:30:27.021Z,38.72
2023-01-07T10:31:27.432Z,17.92
2023-01-07T10:32:30.914Z,25.98
2023-01-07T10:33:31.268Z,25.80
2023-01-07T10:34:35.886Z,17.83
2023-01-07T10:35:35.124Z,13.55
2023-01-07T10:36:55.126Z,20.00
2023-01-07T10:37:53.259Z,10.20
2023-01-07T10:38:59.900Z,42.17
2023-01-07T10:40:17.567Z,22.27
2023-01-07T10:41:23.850Z,18.15
2023-01-07T10:42:33.171Z,16.95
2023-01-07T10:43:45.293Z,25.38
2023-01-07T10:44:56.061Z,16.38
2023-01-07T10:45:58.797Z,19.35
2023-01-07T10:47:04.243Z,13.63
2023-01-07T10:48:16.028Z,12.23
2023-01-07T10:49:31.147Z,16.60
2023-01-07T10:50:30.621Z,26.17
2023-01-07T10:51:48.081Z,35.30
2023-01-07T10:53:02.715Z,25.13
2023-01-07T10:54:21.091Z,24.45
2023-01-07T10:55:34.694Z,19.42
2023-01-07T10:56:36.728Z,12.93
2023-01-07T10:57:34.316Z,15.98
2023-01-07T10:58:39.393Z,21.17
2023-01-07T10:59:37.090Z,28.92
2023-01-07T11:00:33.799Z,31.48
2023-01-07T11:01:37.293Z,17.23
2023-01-07T11:02:34.120Z,12.20
2023-01-07T11:03:31.199Z,11.55
2023-01-07T11:04:27.892Z,25.98
2023-01-07T11:05:37.415Z,22.63
2023-01-07T11:06:49.393Z,16.33
2023-01-07T11:07:51.115Z,12.68
2023-01-07T11:08:48.188Z,27.30
2023-01-07T11:09:47.499Z,21.55
2023-01-07T11:10:44.170Z,18.05
2023-01-07T11:11:42.420Z,29.15
2023-01-07T11:12:56.291Z,24.17
2023-01-07T11:14:18.518Z,25.95
2023-01-07T11:15:50.937Z,21.20
2023-01-07T11:16:55.259Z,39.03
2023-01-07T11:18:11.600Z,24.60
2023-01-07T11:19:10.798Z,26.60
2023-01-07T11:20:08.344Z,31.95
2023-01-07T11:21:05.117Z,23.80
2023-01-07T11:22:03.062Z,23.35
2023-01-07T11:22:59.842Z,21.85
2023-01-07T11:23:56.598Z,21.60
2023-01-07T11:24:54.537Z,27.45
2023-01-07T11:25:51.244Z,23.98
2023-01-07T11:26:49.258Z,18.73
2023-01-07T11:27:46.269Z,20.92
2023-01-07T11:28:50.876Z,17.88
2023-01-07T11:30:28.129Z,14.60
2023-01-07T11:31:57.141Z,20.83
2023-01-07T11:33:03.771Z,15.98
2023-01-07T11:34:04.690Z,20.45
2023-01-07T11:35:08.059Z,19.35
2023-01-07T11:36:05.819Z,22.40
2023-01-07T11:37:03.370Z,18.48
2023-01-07T11:38:02.095Z,13.65
2023-01-07T11:39:10.013Z,22.15
2023-01-07T11:40:12.582Z,15.35
2023-01-07T11:41:25.179Z,22.60
2023-01-07T11:42:39.882Z,19.17
2023-01-07T11:43:40.715Z,16.92
2023-01-07T11:44:37.314Z,15.38
2023-01-07T11:46:19.954Z,19.60
2023-01-07T11:47:15.910Z,17.17
2023-01-07T11:48:24.198Z,16.13
2023-01-07T11:49:27.238Z,14.95
2023-01-07T11:50:36.316Z,11.13
2023-01-07T11:51:42.162Z,14.30
2023-01-07T11:52:38.831Z,18.40
2023-01-07T11:53:38.441Z,9.30
2023-01-07T11:54:35.147Z,10.88
2023-01-07T11:55:31.882Z,11.02
2023-01-07T11:56:34.085Z,9.18
2023-01-07T11:57:30.787Z,10.52
2023-01-07T11:58:32.013Z,11.73
2023-01-07T11:59:30.482Z,16.98
2023-01-07T12:00:31.393Z,12.55
2023-01-07T12:01:28.156Z,11.27
2023-01-07T12:02:27.224Z,14.85
2023-01-07T12:03:24.011Z,10.57
2023-01-07T12:04:49.802Z,16.00
2023-01-07T12:05:55.663Z,21.70
2023-01-07T12:06:55.550Z,17.00
2023-01-07T12:07:52.863Z,11.05
2023-01-07T12:08:55.200Z,12.05
2023-01-07T12:09:51.875Z,14.88
2023-01-07T12:10:55.403Z,12.48
2023-01-07T12:11:54.997Z,12.20
2023-01-07T12:12:52.553Z,11.77
2023-01-07T12:13:53.145Z,10.23
2023-01-07T12:14:49.784Z,14.57
2023-01-07T12:15:54.678Z,10.75
2023-01-07T12:16:52.961Z,10.57
2023-01-07T12:18:18.575Z,12.68
2023-01-07T12:19:31.577Z,9.13
2023-01-07T12:20:39.927Z,10.82
2023-01-07T12:21:45.221Z,8.55
2023-01-07T12:23:05.659Z,14.70
2023-01-07T12:24:08.221Z,13.57
2023-01-07T12:25:13.947Z,14.98
2023-01-07T12:26:20.984Z,13.45
2023-01-07T12:27:23.387Z,10.50
2023-01-07T12:28:35.405Z,10.60
2023-01-07T12:30:02.748Z,11.23
2023-01-07T12:31:34.779Z,10.77
2023-01-07T12:32:42.795Z,9.40
2023-01-07T12:33:51.638Z,8.88
2023-01-07T12:35:15.992Z,11.57
2023-01-07T12:36:35.935Z,9.77
2023-01-07T12:37:44.147Z,19.73
2023-01-07T12:38:48.324Z,6.75
2023-01-07T12:39:45.728Z,14.43
2023-01-07T12:40:48.918Z,9.25
2023-01-07T12:41:55.751Z,8.27
2023-01-07T12:42:57.332Z,9.02
2023-01-07T12:44:02.654Z,11.43
2023-01-07T12:45:06.554Z,8.13
2023-01-07T12:46:10.871Z,8.95
2023-01-07T12:47:32.687Z,8.90
2023-01-07T12:48:45.316Z,10.18
2023-01-07T12:50:10.816Z,12.20
2023-01-07T12:51:28.413Z,8.65
2023-01-07T12:52:27.865Z,8.63
2023-01-07T12:53:34.520Z,9.18
2023-01-07T12:54:37.188Z,16.38
2023-01-07T12:55:59.229Z,11.90
2023-01-07T12:57:03.175Z,11.57
2023-01-07T12:58:09.801Z,9.57
2023-01-07T12:59:46.781Z,6.75
2023-01-07T13:00:56.737Z,7.13
2023-01-07T13:02:10.494Z,13.32
2023-01-07T13:03:17.735Z,6.28
2023-01-07T13:04:14.324Z,8.23
2023-01-07T13:05:25.131Z,8.20
2023-01-07T13:06:36.341Z,8.55
2023-01-07T13:07:44.408Z,14.18
2023-01-07T13:08:47.703Z,12.00
2023-01-07T13:10:28.657Z,16.38
2023-01-07T13:11:58.503Z,11.40
2023-01-07T13:13:01.065Z,12.90
2023-01-07T13:13:57.925Z,23.88
2023-01-07T13:14:59.022Z,13.35